createdAt,value
2018-07-25T00:01:37.989Z,52.86
2018-07-25T00:04:07.813Z,52.12
2018-07-25T00:06:43.737Z,52.97
2018-07-25T00:09:13.427Z,52.79
2018-07-25T00:11:43.120Z,53.78
2018-07-25T00:14:12.886Z,54.16
2018-07-25T00:16:42.617Z,54.96
2018-07-25T00:19:12.292Z,54.33
2018-07-25T00:21:41.980Z,54.81
2018-07-25T00:24:11.712Z,54.36
2018-07-25T00:26:41.400Z,54.61
2018-07-25T00:29:11.125Z,54.68
2018-07-25T00:31:40.888Z,54.49
2018-07-25T00:34:10.580Z,54.09
2018-07-25T00:36:40.276Z,55.09
2018-07-25T00:39:10.371Z,54.28
2018-07-25T00:41:40.124Z,55.34
2018-07-25T00:44:09.904Z,55.08
2018-07-25T00:46:40.084Z,55.21
2018-07-25T00:49:09.809Z,54.88
2018-07-25T00:51:39.497Z,55.77
2018-07-25T00:54:09.289Z,55.61
2018-07-25T00:56:39.011Z,56.20
2018-07-25T00:59:08.880Z,56.42
2018-07-25T01:01:38.616Z,55.89
2018-07-25T01:04:08.308Z,56.52
2018-07-25T01:06:38.012Z,56.44
2018-07-25T01:09:10.044Z,56.73
2018-07-25T01:11:39.771Z,57.31
2018-07-25T01:14:09.515Z,56.94
2018-07-25T01:16:39.884Z,57.30
2018-07-25T01:19:09.614Z,58.26
2018-07-25T01:21:39.324Z,58.40
2018-07-25T01:24:08.995Z,58.68
2018-07-25T01:26:38.716Z,58.53
2018-07-25T01:29:08.411Z,58.35
2018-07-25T01:31:38.164Z,58.67
2018-07-25T01:34:07.856Z,58.95
2018-07-25T01:36:37.567Z,59.44
2018-07-25T01:39:09.074Z,59.46
2018-07-25T01:41:38.872Z,59.18
2018-07-25T01:44:09.092Z,59.18
2018-07-25T01:46:38.852Z,59.92
2018-07-25T01:49:08.560Z,59.49
2018-07-25T01:51:38.296Z,59.64
2018-07-25T01:54:08.011Z,59.46
2018-07-25T01:56:37.709Z,59.46
2018-07-25T01:59:07.459Z,59.81
2018-07-25T02:01:37.155Z,59.09
2018-07-25T02:04:06.883Z,58.74
2018-07-25T02:06:36.625Z,59.47
2018-07-25T02:09:09.791Z,59.50
2018-07-25T02:11:39.743Z,60.04
2018-07-25T02:14:09.463Z,59.75
2018-07-25T02:16:39.211Z,59.45
2018-07-25T02:19:08.911Z,59.38
2018-07-25T02:21:38.632Z,59.53
2018-07-25T02:24:08.315Z,59.99
2018-07-25T02:26:38.023Z,60.22
2018-07-25T02:29:07.824Z,59.69
2018-07-25T02:31:37.539Z,60.46
2018-07-25T02:34:12.389Z,60.61
2018-07-25T02:36:42.117Z,61.21
2018-07-25T02:39:13.605Z,60.64
2018-07-25T02:41:44.371Z,60.58
2018-07-25T02:44:14.463Z,60.85
2018-07-25T02:46:44.341Z,60.19
2018-07-25T02:49:14.025Z,60.25
2018-07-25T02:51:43.753Z,60.95
2018-07-25T02:54:13.479Z,61.69
2018-07-25T02:56:43.169Z,61.18
2018-07-25T02:59:12.822Z,61.18
2018-07-25T03:01:42.591Z,60.69
2018-07-25T03:04:12.299Z,60.58
2018-07-25T03:06:41.969Z,61.44
2018-07-25T03:09:11.814Z,60.79
2018-07-25T03:11:41.808Z,61.32
2018-07-25T03:14:11.620Z,60.92
2018-07-25T03:16:41.309Z,61.28
2018-07-25T03:19:11.103Z,60.29
2018-07-25T03:21:40.848Z,60.43
2018-07-25T03:24:10.566Z,60.94
2018-07-25T03:26:40.489Z,60.94
2018-07-25T03:29:10.171Z,59.78
2018-07-25T03:31:39.968Z,60.52
2018-07-25T03:34:09.620Z,60.22
2018-07-25T03:36:39.332Z,60.52
2018-07-25T03:39:09.138Z,60.57
2018-07-25T03:41:38.824Z,60.70
2018-07-25T03:44:08.499Z,60.19
2018-07-25T03:46:38.226Z,60.35
2018-07-25T03:49:07.934Z,61.09
2018-07-25T03:51:37.675Z,61.26
2018-07-25T03:54:07.471Z,60.15
2018-07-25T03:56:37.180Z,60.49
2018-07-25T03:59:06.975Z,61.52
2018-07-25T04:01:36.737Z,60.85
2018-07-25T04:04:06.497Z,61.42
2018-07-25T04:06:36.223Z,61.95
2018-07-25T04:09:08.629Z,60.90
2018-07-25T04:11:38.623Z,61.62
2018-07-25T04:14:08.350Z,61.62
2018-07-25T04:16:38.073Z,60.92
2018-07-25T04:19:07.840Z,61.27
2018-07-25T04:21:37.523Z,61.08
2018-07-25T04:24:07.295Z,61.75
2018-07-25T04:26:37.412Z,61.55
2018-07-25T04:29:07.138Z,61.20
2018-07-25T04:31:36.846Z,60.91
2018-07-25T04:34:06.611Z,61.91
2018-07-25T04:36:36.332Z,61.68
2018-07-25T04:39:09.140Z,61.74
2018-07-25T04:41:39.079Z,61.50
2018-07-25T04:44:09.106Z,61.49
2018-07-25T04:46:39.270Z,61.96
2018-07-25T04:49:09.201Z,61.99
2018-07-25T04:51:38.904Z,61.52
2018-07-25T04:54:08.674Z,61.17
2018-07-25T04:56:38.412Z,60.36
2018-07-25T04:59:08.159Z,60.17
2018-07-25T05:01:37.823Z,60.50
2018-07-25T05:04:07.740Z,60.01
2018-07-25T05:06:37.502Z,60.59
2018-07-25T05:09:09.060Z,60.65
2018-07-25T05:11:38.905Z,60.95
2018-07-25T05:14:08.740Z,60.27
2018-07-25T05:16:38.467Z,60.45
2018-07-25T05:19:08.093Z,59.89
2018-07-25T05:21:39.020Z,59.28
2018-07-25T05:24:11.784Z,58.91
2018-07-25T05:26:41.492Z,59.08
2018-07-25T05:29:11.108Z,58.50
2018-07-25T05:31:40.767Z,58.28
2018-07-25T05:34:10.482Z,55.99
2018-07-25T05:36:40.146Z,55.93
2018-07-25T05:39:11.991Z,55.76
2018-07-25T05:41:42.289Z,55.18
2018-07-25T05:44:12.032Z,54.52
2018-07-25T05:46:41.660Z,54.77
2018-07-25T05:49:11.353Z,54.61
2018-07-25T05:51:41.131Z,54.12
2018-07-25T05:54:10.832Z,54.02
2018-07-25T05:56:40.520Z,54.65
2018-07-25T05:59:10.252Z,54.03
2018-07-25T06:01:39.909Z,54.46
2018-07-25T06:04:09.556Z,54.20
2018-07-25T06:06:39.276Z,54.51
2018-07-25T06:09:09.961Z,53.23
2018-07-25T06:11:40.208Z,52.64
2018-07-25T06:14:09.969Z,52.84
2018-07-25T06:16:39.699Z,51.50
2018-07-25T06:19:09.404Z,50.93
2018-07-25T06:21:39.065Z,50.22
2018-07-25T06:24:08.711Z,50.34
2018-07-25T06:26:38.413Z,50.20
2018-07-25T06:29:08.071Z,50.69
2018-07-25T06:31:37.858Z,49.52
2018-07-25T06:34:08.156Z,50.14
2018-07-25T06:36:38.315Z,50.27
2018-07-25T06:39:10.880Z,50.45
2018-07-25T06:41:40.696Z,50.60
2018-07-25T06:44:10.804Z,50.04
2018-07-25T06:46:40.473Z,50.60
2018-07-25T06:49:10.386Z,49.99
2018-07-25T06:51:40.104Z,49.83
2018-07-25T06:54:09.770Z,50.04
2018-07-25T06:56:39.478Z,49.60
2018-07-25T06:59:09.145Z,50.80
2018-07-25T07:01:38.803Z,50.48
2018-07-25T07:04:08.537Z,49.65
2018-07-25T07:06:38.227Z,50.17
2018-07-25T07:09:09.258Z,49.06
2018-07-25T07:11:38.924Z,49.06
2018-07-25T07:14:08.594Z,47.75
2018-07-25T07:16:38.280Z,46.51
2018-07-25T07:19:07.965Z,46.56
2018-07-25T07:21:37.616Z,45.47
2018-07-25T07:24:07.469Z,45.94
2018-07-25T07:26:37.156Z,45.56
2018-07-25T07:29:07.261Z,46.02
2018-07-25T07:31:36.916Z,45.64
2018-07-25T07:34:06.635Z,45.01
2018-07-25T07:36:36.331Z,43.55
2018-07-25T07:39:09.139Z,42.86
2018-07-25T07:41:38.984Z,43.55
2018-07-25T07:44:08.687Z,43.55
2018-07-25T07:46:38.702Z,43.68
2018-07-25T07:49:08.825Z,42.60
2018-07-25T07:51:38.533Z,42.74
2018-07-25T07:54:08.536Z,42.57
2018-07-25T07:56:38.227Z,42.55
2018-07-25T07:59:07.873Z,41.50
2018-07-25T08:01:37.561Z,41.11
2018-07-25T08:04:07.401Z,40.63
2018-07-25T08:06:37.141Z,40.98
2018-07-25T08:09:09.540Z,40.82
2018-07-25T08:11:39.226Z,39.20
2018-07-25T08:14:08.860Z,41.20
2018-07-25T08:16:38.634Z,40.96
2018-07-25T08:19:08.881Z,40.23
2018-07-25T08:21:38.614Z,40.63
2018-07-25T08:24:08.281Z,39.98
2018-07-25T08:26:38.004Z,38.56
2018-07-25T08:29:07.745Z,37.35
2018-07-25T08:31:37.881Z,37.11
2018-07-25T08:34:07.683Z,37.77
2018-07-25T08:36:37.379Z,37.71
2018-07-25T08:39:09.578Z,38.25
2018-07-25T08:41:39.317Z,37.52
2018-07-25T08:44:09.003Z,37.23
2018-07-25T08:46:38.716Z,37.41
2018-07-25T08:49:08.422Z,37.43
2018-07-25T08:51:38.147Z,37.12
2018-07-25T08:54:07.832Z,37.01
2018-07-25T08:56:37.533Z,35.51
2018-07-25T08:59:07.276Z,37.39
2018-07-25T09:01:36.972Z,35.79
2018-07-25T09:04:06.842Z,36.18
2018-07-25T09:06:36.560Z,35.19
2018-07-25T09:09:08.975Z,35.10
2018-07-25T09:11:38.700Z,35.69
2018-07-25T09:14:08.743Z,35.61
2018-07-25T09:16:38.479Z,36.01
2018-07-25T09:19:08.196Z,34.90
2018-07-25T09:21:37.864Z,35.51
2018-07-25T09:24:07.985Z,34.57
2018-07-25T09:26:37.651Z,33.13
2018-07-25T09:29:07.403Z,32.48
2018-07-25T09:31:37.125Z,32.07
2018-07-25T09:34:06.952Z,31.84
2018-07-25T09:36:36.639Z,32.97
2018-07-25T09:39:09.441Z,33.53
2018-07-25T09:41:39.176Z,33.33
2018-07-25T09:44:08.863Z,33.31
2018-07-25T09:46:38.583Z,33.27
2018-07-25T09:49:09.567Z,34.59
2018-07-25T09:51:39.302Z,34.40
2018-07-25T09:54:09.376Z,34.55
2018-07-25T09:56:39.138Z,34.77
2018-07-25T09:59:09.094Z,35.26
2018-07-25T10:01:38.801Z,34.64
2018-07-25T10:04:08.556Z,34.63
2018-07-25T10:06:38.515Z,35.86
2018-07-25T10:09:10.528Z,36.06
2018-07-25T10:11:40.504Z,35.79
2018-07-25T10:14:10.262Z,35.17
2018-07-25T10:16:40.506Z,35.83
2018-07-25T10:19:10.264Z,35.35
2018-07-25T10:21:39.972Z,36.09
2018-07-25T10:24:10.029Z,36.26
2018-07-25T10:26:39.786Z,36.50
2018-07-25T10:29:09.835Z,36.26
2018-07-25T10:31:39.926Z,35.44
2018-07-25T10:34:09.987Z,33.41
2018-07-25T10:36:39.738Z,34.71
2018-07-25T10:39:10.579Z,32.62
2018-07-25T10:41:40.248Z,31.46
2018-07-25T10:44:09.969Z,31.86
2018-07-25T10:46:39.974Z,31.76
2018-07-25T10:49:09.744Z,31.34
2018-07-25T10:51:39.476Z,32.26
2018-07-25T10:54:09.248Z,32.83
2018-07-25T10:56:39.001Z,31.15
2018-07-25T10:59:08.756Z,30.07
2018-07-25T11:01:38.490Z,30.17
2018-07-25T11:04:08.233Z,29.65
2018-07-25T11:06:37.958Z,29.45
2018-07-25T11:09:08.805Z,29.17
2018-07-25T11:11:38.760Z,29.01
2018-07-25T11:14:08.527Z,28.36
2018-07-25T11:16:38.225Z,27.83
2018-07-25T11:19:07.915Z,27.67
2018-07-25T11:21:37.657Z,27.98
2018-07-25T11:24:07.361Z,28.40
2018-07-25T11:26:37.085Z,27.95
2018-07-25T11:29:06.784Z,28.16
2018-07-25T11:31:36.463Z,27.69
2018-07-25T11:34:06.670Z,28.09
2018-07-25T11:36:36.344Z,27.91
2018-07-25T11:39:09.572Z,29.11
2018-07-25T11:41:39.901Z,28.73
2018-07-25T11:44:09.672Z,28.77
2018-07-25T11:46:39.349Z,29.25
2018-07-25T11:49:09.195Z,29.86
2018-07-25T11:51:38.855Z,28.67
2018-07-25T11:54:08.918Z,29.42
2018-07-25T11:56:38.673Z,28.37
2018-07-25T11:59:08.359Z,28.85
2018-07-25T12:01:38.212Z,28.12
2018-07-25T12:04:08.345Z,28.30
2018-07-25T12:06:38.124Z,28.05
2018-07-25T12:09:09.922Z,27.08
2018-07-25T12:11:46.736Z,27.12
2018-07-25T12:14:17.955Z,27.52
2018-07-25T12:16:47.753Z,26.79
2018-07-25T12:19:17.913Z,27.64
2018-07-25T12:21:47.660Z,28.48
2018-07-25T12:24:17.368Z,28.32
2018-07-25T12:26:47.148Z,29.86
2018-07-25T12:29:16.865Z,27.59
2018-07-25T12:31:46.595Z,27.85
2018-07-25T12:34:16.297Z,27.36
2018-07-25T12:36:46.060Z,26.18
2018-07-25T12:39:15.775Z,27.27
2018-07-25T12:41:45.555Z,25.55
2018-07-25T12:44:15.254Z,26.58
2018-07-25T12:46:45.355Z,25.68
2018-07-25T12:49:15.109Z,27.25
2018-07-25T12:51:45.178Z,25.75
2018-07-25T12:54:14.936Z,25.47
2018-07-25T12:56:44.664Z,25.46
2018-07-25T12:59:14.864Z,26.18
2018-07-25T13:01:44.645Z,25.82
2018-07-25T13:04:14.389Z,26.32
2018-07-25T13:06:44.172Z,24.58
2018-07-25T13:09:14.367Z,25.96
2018-07-25T13:11:43.994Z,25.04
2018-07-25T13:14:13.741Z,26.58
2018-07-25T13:16:43.484Z,27.42
2018-07-25T13:19:13.259Z,28.19
2018-07-25T13:21:43.404Z,28.46
2018-07-25T13:24:13.145Z,26.84
2018-07-25T13:26:42.865Z,26.35
2018-07-25T13:29:12.572Z,25.55
2018-07-25T13:31:42.344Z,26.31
2018-07-25T13:34:12.042Z,25.21
2018-07-25T13:36:41.814Z,24.75
2018-07-25T13:39:11.516Z,25.28
2018-07-25T13:41:41.437Z,24.19
2018-07-25T13:44:11.197Z,24.73
2018-07-25T13:46:40.900Z,25.95
2018-07-25T13:49:10.885Z,26.01
2018-07-25T13:51:41.135Z,24.43
2018-07-25T13:54:10.858Z,24.98
2018-07-25T13:56:40.549Z,24.15
2018-07-25T13:59:10.305Z,24.77
2018-07-25T14:01:40.092Z,24.15
2018-07-25T14:04:09.804Z,24.66
2018-07-25T14:06:39.586Z,24.82
2018-07-25T14:09:11.096Z,24.20
2018-07-25T14:11:41.291Z,24.90
2018-07-25T14:14:11.460Z,25.23
2018-07-25T14:16:41.225Z,24.91
2018-07-25T14:19:10.980Z,25.01
2018-07-25T14:21:41.117Z,25.33
2018-07-25T14:24:10.836Z,25.19
2018-07-25T14:26:40.586Z,25.91
2018-07-25T14:29:10.393Z,25.41
2018-07-25T14:31:40.003Z,25.04
2018-07-25T14:34:09.764Z,25.20
2018-07-25T14:36:39.753Z,25.00
2018-07-25T14:39:10.936Z,25.74
2018-07-25T14:41:41.205Z,26.04
2018-07-25T14:44:11.391Z,26.25
2018-07-25T14:46:41.290Z,26.53
2018-07-25T14:49:10.963Z,26.48
2018-07-25T14:51:40.680Z,26.89
2018-07-25T14:54:10.467Z,26.83
2018-07-25T14:56:40.205Z,26.19
2018-07-25T14:59:09.921Z,25.83
2018-07-25T15:01:39.740Z,25.77
2018-07-25T15:04:09.458Z,25.85
2018-07-25T15:06:39.276Z,26.08
2018-07-25T15:09:10.155Z,26.00
2018-07-25T15:11:40.126Z,26.21
2018-07-25T15:14:10.501Z,26.04
2018-07-25T15:16:40.270Z,27.11
2018-07-25T15:19:10.329Z,25.85
2018-07-25T15:21:40.551Z,26.21
2018-07-25T15:24:10.674Z,26.39
2018-07-25T15:26:41.043Z,27.04
2018-07-25T15:29:10.777Z,26.63
2018-07-25T15:31:40.453Z,25.06
2018-07-25T15:34:10.449Z,25.27
2018-07-25T15:36:45.942Z,25.76
2018-07-25T15:39:19.400Z,26.37
2018-07-25T15:41:50.859Z,27.68
2018-07-25T15:44:21.761Z,27.99
2018-07-25T15:46:51.510Z,28.94
2018-07-25T15:49:21.392Z,29.14
2018-07-25T15:51:51.108Z,28.95
2018-07-25T15:54:20.788Z,29.73
2018-07-25T15:56:50.655Z,29.39
2018-07-25T15:59:20.395Z,30.55
2018-07-25T16:01:50.206Z,30.43
2018-07-25T16:04:19.843Z,30.10
2018-07-25T16:06:49.659Z,30.12
2018-07-25T16:09:19.408Z,29.75
2018-07-25T16:11:49.198Z,29.62
2018-07-25T16:14:18.879Z,30.24
2018-07-25T16:16:48.617Z,30.26
2018-07-25T16:19:18.333Z,30.09
2018-07-25T16:21:48.043Z,29.99
2018-07-25T16:24:18.018Z,30.78
2018-07-25T16:26:47.740Z,30.76
2018-07-25T16:29:17.420Z,30.05
2018-07-25T16:31:47.209Z,29.52
2018-07-25T16:34:16.982Z,30.18
2018-07-25T16:36:46.667Z,30.53
2018-07-25T16:39:18.445Z,29.71
2018-07-25T16:41:48.253Z,30.13
2018-07-25T16:44:17.963Z,29.73
2018-07-25T16:46:47.727Z,29.00
2018-07-25T16:49:17.442Z,29.95
2018-07-25T16:51:47.188Z,29.58
2018-07-25T16:54:16.922Z,29.22
2018-07-25T16:56:46.702Z,30.93
2018-07-25T16:59:16.504Z,29.27
2018-07-25T17:01:46.218Z,28.88
2018-07-25T17:04:15.954Z,29.87
2018-07-25T17:06:45.728Z,30.87
2018-07-25T17:09:15.434Z,29.75
2018-07-25T17:11:45.262Z,30.39
2018-07-25T17:14:15.717Z,30.56
2018-07-25T17:16:45.462Z,30.88
2018-07-25T17:19:15.172Z,29.34
2018-07-25T17:21:44.908Z,30.80
2018-07-25T17:24:14.743Z,31.20
2018-07-25T17:26:44.452Z,31.05
2018-07-25T17:29:14.188Z,30.68
2018-07-25T17:31:43.912Z,30.13
2018-07-25T17:34:13.627Z,29.66
2018-07-25T17:36:43.378Z,31.06
2018-07-25T17:39:13.122Z,30.53
2018-07-25T17:41:43.197Z,29.87
2018-07-25T17:44:12.929Z,30.83
2018-07-25T17:46:42.681Z,30.67
2018-07-25T17:49:12.804Z,30.17
2018-07-25T17:51:42.565Z,30.63
2018-07-25T17:54:12.314Z,29.70
2018-07-25T17:56:42.328Z,30.51
2018-07-25T17:59:12.085Z,29.71
2018-07-25T18:01:42.101Z,29.44
2018-07-25T18:04:12.189Z,30.47
2018-07-25T18:06:41.944Z,29.72
2018-07-25T18:09:11.924Z,30.58
2018-07-25T18:11:41.979Z,29.79
2018-07-25T18:14:13.421Z,30.80
2018-07-25T18:16:44.373Z,30.01
2018-07-25T18:19:15.492Z,30.67
2018-07-25T18:21:45.588Z,31.34
2018-07-25T18:24:15.347Z,31.37
2018-07-25T18:26:45.116Z,31.38
2018-07-25T18:29:15.242Z,32.16
2018-07-25T18:31:45.238Z,32.31
2018-07-25T18:34:14.941Z,31.99
2018-07-25T18:36:44.672Z,32.99
2018-07-25T18:39:14.503Z,33.81
2018-07-25T18:41:44.974Z,35.09
2018-07-25T18:44:15.300Z,34.48
2018-07-25T18:46:45.709Z,35.11
2018-07-25T18:49:15.875Z,34.77
2018-07-25T18:51:45.591Z,34.93
2018-07-25T18:54:15.336Z,35.59
2018-07-25T18:56:45.083Z,35.58
2018-07-25T18:59:14.784Z,35.06
2018-07-25T19:01:44.628Z,35.06
2018-07-25T19:04:14.320Z,35.14
2018-07-25T19:06:44.120Z,34.43
2018-07-25T19:09:15.379Z,35.59
2018-07-25T19:11:45.827Z,35.47
2018-07-25T19:14:20.738Z,35.53
2018-07-25T19:16:50.513Z,36.10
2018-07-25T19:19:20.547Z,37.14
2018-07-25T19:21:50.318Z,37.63
2018-07-25T19:24:20.031Z,36.86
2018-07-25T19:26:49.723Z,36.84
2018-07-25T19:29:19.431Z,36.71
2018-07-25T19:31:49.137Z,37.39
2018-07-25T19:34:19.003Z,38.26
2018-07-25T19:36:48.776Z,38.81
2018-07-25T19:39:18.497Z,38.84
2018-07-25T19:41:48.235Z,39.58
2018-07-25T19:44:18.200Z,40.85
2018-07-25T19:46:47.920Z,41.50
2018-07-25T19:49:17.987Z,41.66
2018-07-25T19:51:48.840Z,42.01
2018-07-25T19:54:18.785Z,42.29
2018-07-25T19:56:51.720Z,42.63
2018-07-25T19:59:22.227Z,42.69
2018-07-25T20:01:52.803Z,43.15
2018-07-25T20:04:23.781Z,43.46
2018-07-25T20:06:53.587Z,43.12
2018-07-25T20:09:23.332Z,43.57
2018-07-25T20:11:53.041Z,43.56
2018-07-25T20:14:27.845Z,43.07
2018-07-25T20:16:57.686Z,44.18
2018-07-25T20:19:27.383Z,43.35
2018-07-25T20:21:57.803Z,43.67
2018-07-25T20:24:27.487Z,44.26
2018-07-25T20:26:57.494Z,44.05
2018-07-25T20:29:27.542Z,43.89
2018-07-25T20:31:57.281Z,44.31
2018-07-25T20:34:26.940Z,44.37
2018-07-25T20:36:56.599Z,44.74
2018-07-25T20:39:26.351Z,45.43
2018-07-25T20:41:56.065Z,45.26
2018-07-25T20:44:25.736Z,44.85
2018-07-25T20:46:55.809Z,45.09
2018-07-25T20:49:25.520Z,46.18
2018-07-25T20:51:55.623Z,46.92
2018-07-25T20:54:25.876Z,46.93
2018-07-25T20:56:56.005Z,46.21
2018-07-25T20:59:25.712Z,46.73
2018-07-25T21:01:56.040Z,46.53
2018-07-25T21:04:25.753Z,46.90
2018-07-25T21:06:55.479Z,46.88
2018-07-25T21:09:25.277Z,46.58
2018-07-25T21:11:55.372Z,46.99
2018-07-25T21:14:25.136Z,47.45
2018-07-25T21:16:54.797Z,47.05
2018-07-25T21:19:24.593Z,47.57
2018-07-25T21:21:54.831Z,47.43
2018-07-25T21:24:24.928Z,48.35
2018-07-25T21:26:54.701Z,48.28
2018-07-25T21:29:24.436Z,48.73
2018-07-25T21:31:54.552Z,48.44
2018-07-25T21:34:24.815Z,47.74
2018-07-25T21:36:54.765Z,48.70
2018-07-25T21:39:24.535Z,49.07
2018-07-25T21:41:54.249Z,48.03
2018-07-25T21:44:24.009Z,48.92
2018-07-25T21:46:54.175Z,49.22
2018-07-25T21:49:24.581Z,48.09
2018-07-25T21:51:54.707Z,47.28
2018-07-25T21:54:24.797Z,48.20
2018-07-25T21:56:54.932Z,48.19
2018-07-25T21:59:24.727Z,48.29
2018-07-25T22:01:54.901Z,48.92
2018-07-25T22:04:25.056Z,48.79
2018-07-25T22:06:55.114Z,48.51
2018-07-25T22:09:24.867Z,50.45
2018-07-25T22:11:54.611Z,49.42
2018-07-25T22:14:24.303Z,49.73
2018-07-25T22:16:54.325Z,49.95
2018-07-25T22:19:24.346Z,50.49
2018-07-25T22:21:54.121Z,50.62
2018-07-25T22:24:24.521Z,50.26
2018-07-25T22:26:54.270Z,50.29
2018-07-25T22:29:23.999Z,50.86
2018-07-25T22:31:53.688Z,50.68
2018-07-25T22:34:23.871Z,50.82
2018-07-25T22:36:54.041Z,50.23
2018-07-25T22:39:23.789Z,50.90
2018-07-25T22:41:54.007Z,51.37
2018-07-25T22:44:23.780Z,52.27
2018-07-25T22:46:53.934Z,51.44
2018-07-25T22:49:23.710Z,52.01
2018-07-25T22:51:53.429Z,52.09
2018-07-25T22:54:23.159Z,52.09
2018-07-25T22:56:52.844Z,52.80
2018-07-25T22:59:22.821Z,52.55
2018-07-25T23:01:52.845Z,53.39
2018-07-25T23:04:22.565Z,52.82
2018-07-25T23:06:52.376Z,52.92
2018-07-25T23:09:22.104Z,52.74
2018-07-25T23:11:51.841Z,52.20
2018-07-25T23:14:21.811Z,52.99
2018-07-25T23:16:51.556Z,52.30
2018-07-25T23:19:21.232Z,52.27
2018-07-25T23:21:50.956Z,53.12
2018-07-25T23:24:21.076Z,52.51
2018-07-25T23:26:51.279Z,52.78
2018-07-25T23:29:21.523Z,53.02
2018-07-25T23:31:51.493Z,51.99
2018-07-25T23:34:21.241Z,53.39
2018-07-25T23:36:50.945Z,53.72
2018-07-25T23:39:20.657Z,53.90
2018-07-25T23:41:50.442Z,53.75
2018-07-25T23:44:20.135Z,54.99
2018-07-25T23:46:50.217Z,54.33
2018-07-25T23:49:19.902Z,54.43
2018-07-25T23:51:50.013Z,54.85
2018-07-25T23:54:19.761Z,55.09
2018-07-25T23:56:49.455Z,55.03
2018-07-25T23:59:19.190Z,55.24
